Time;durP1;ratioP1;P1;durP2;ratioP2;P2;SDS_P1;SDS_P2;PMS_P1;PMS_P2;Temp;Humidity;BMP_temperature;BMP_pressure;BME280_temperature;BME280_humidity;BME280_pressure;Samples;Min_cycle;Max_cycle;Signal;HPM_P1;HPM_P2
2020/12/08 00:01:14;;;;;;;3.20;2.77;;;;;;;-8.57;75.23;101384.31;1790382;80;21032;-65
2020/12/08 00:03:41;;;;;;;1.67;1.57;;;;;;;-8.56;75.20;101387.38;1790463;80;21000;-65
2020/12/08 00:06:09;;;;;;;2.00;1.90;;;;;;;-8.54;75.18;101376.42;1790457;80;21138;-65
2020/12/08 00:08:37;;;;;;;1.70;1.60;;;;;;;-8.54;75.23;101372.03;1790356;80;21047;-64
2020/12/08 00:11:05;;;;;;;2.07;1.73;;;;;;;-8.54;75.25;101374.66;1787666;80;20952;-65
2020/12/08 00:13:33;;;;;;;1.60;1.50;;;;;;;-8.55;75.28;101373.36;1782953;80;20992;-65
2020/12/08 00:16:05;;;;;;;5.17;2.37;;;;;;;-8.56;75.36;101366.39;1788695;80;21017;-65
2020/12/08 00:18:33;;;;;;;6.60;2.00;;;;;;;-8.54;75.45;101358.92;1788992;80;21366;-65
2020/12/08 00:21:01;;;;;;;1.90;1.60;;;;;;;-8.53;75.51;101360.67;1788677;80;21012;-65
2020/12/08 00:23:29;;;;;;;2.07;1.90;;;;;;;-8.48;75.46;101348.80;1788762;80;20946;-65
2020/12/08 00:26:13;;;;;;;1.37;1.27;;;;;;;-8.46;75.55;101353.16;1751202;82;21026;-65
2020/12/08 00:28:41;;;;;;;1.63;1.53;;;;;;;-8.45;75.51;101348.77;1748549;82;20930;-65
2020/12/08 00:31:09;;;;;;;12.47;2.07;;;;;;;-8.45;75.48;101357.49;1751105;82;21207;-65
2020/12/08 00:33:37;;;;;;;1.77;1.53;;;;;;;-8.45;75.44;101351.39;1729809;83;21026;-66
2020/12/08 00:36:05;;;;;;;1.57;1.53;;;;;;;-8.47;75.39;101350.55;1729816;83;21066;-65
2020/12/08 00:38:33;;;;;;;2.70;1.70;;;;;;;-8.47;75.35;101338.73;1729761;83;21014;-66
2020/12/08 00:41:01;;;;;;;4.63;3.17;;;;;;;-8.48;75.34;101348.38;1729838;83;20987;-66
2020/12/08 00:43:29;;;;;;;1.77;1.67;;;;;;;-8.49;75.30;101323.02;1729842;83;21448;-65
2020/12/08 00:45:57;;;;;;;1.57;1.50;;;;;;;-8.50;75.30;101321.72;1748438;81;20961;-66
2020/12/08 00:48:24;;;;;;;3.50;2.07;;;;;;;-8.50;75.30;101335.69;1777187;80;20949;-66
2020/12/08 00:50:52;;;;;;;1.70;1.30;;;;;;;-8.51;75.42;101324.80;1737707;81;21035;-65
2020/12/08 00:53:20;;;;;;;5.93;3.40;;;;;;;-8.53;75.42;101333.55;1727915;83;21042;-66
2020/12/08 00:55:48;;;;;;;3.37;2.60;;;;;;;-8.52;75.68;101325.67;1725092;83;21273;-65
2020/12/08 00:58:16;;;;;;;2.33;2.13;;;;;;;-8.46;75.90;101330.00;1744936;82;20949;-66
2020/12/08 01:00:44;;;;;;;3.87;2.70;;;;;;;-8.44;75.90;101328.22;1723860;83;21054;-66
2020/12/08 01:03:14;;;;;;;0.80;0.80;;;;;;;-8.44;75.94;101339.56;1745027;81;21000;-65
2020/12/08 01:05:43;;;;;;;2.80;2.57;;;;;;;-8.41;75.89;101322.88;1745032;82;20909;-65
2020/12/08 01:08:12;;;;;;;3.63;2.80;;;;;;;-8.41;75.87;101330.74;1745153;82;21371;-65
2020/12/08 01:10:40;;;;;;;0.83;0.83;;;;;;;-8.40;75.90;101323.31;1744962;82;20933;-65
2020/12/08 01:13:08;;;;;;;3.70;2.00;;;;;;;-8.40;75.84;101325.48;1745039;82;21044;-65
2020/12/08 01:15:36;;;;;;;2.17;1.33;;;;;;;-8.40;75.84;101316.75;1744966;82;21026;-66
2020/12/08 01:18:05;;;;;;;3.33;1.53;;;;;;;-8.40;75.83;101317.61;1745190;82;21770;-65
2020/12/08 01:20:34;;;;;;;1.90;1.27;;;;;;;-8.40;75.84;101309.74;1745085;82;21198;-66
2020/12/08 01:23:02;;;;;;;2.20;1.97;;;;;;;-8.40;75.83;101309.74;1745011;82;20941;-64
2020/12/08 01:25:31;;;;;;;5.83;2.50;;;;;;;-8.40;75.73;101318.92;1764828;79;20938;-65
2020/12/08 01:28:00;;;;;;;5.00;2.30;;;;;;;-8.42;75.65;101321.19;1779093;80;20989;-67
2020/12/08 01:30:29;;;;;;;2.73;2.10;;;;;;;-8.42;75.62;101331.20;1779085;80;20977;-66
2020/12/08 01:32:56;;;;;;;1.67;1.57;;;;;;;-8.42;75.61;101327.27;1779191;80;21594;-65
2020/12/08 01:35:26;;;;;;;2.93;2.13;;;;;;;-8.42;75.56;101314.63;1778793;79;21024;-65
2020/12/08 01:37:56;;;;;;;3.23;2.40;;;;;;;-8.43;75.68;101308.53;1776114;80;21024;-65
2020/12/08 01:40:24;;;;;;;7.20;3.43;;;;;;;-8.45;75.75;101293.22;1779078;80;21017;-65
2020/12/08 01:42:52;;;;;;;1.67;1.40;;;;;;;-8.44;75.87;101304.61;1779041;80;21056;-64
2020/12/08 01:45:20;;;;;;;2.37;2.13;;;;;;;-8.43;75.98;101300.66;1779060;80;21204;-66
2020/12/08 01:47:49;;;;;;;3.70;2.27;;;;;;;-8.40;76.00;101295.31;1772946;81;20998;-65
2020/12/08 01:50:19;;;;;;;2.67;1.97;;;;;;;-8.38;76.04;101296.61;1776335;80;21009;-65
2020/12/08 01:52:48;;;;;;;1.47;0.93;;;;;;;-8.35;76.03;101285.22;1798469;79;21018;-65
2020/12/08 01:55:16;;;;;;;2.10;1.77;;;;;;;-8.34;76.05;101277.76;1798486;79;20943;-66
2020/12/08 01:57:45;;;;;;;4.50;2.47;;;;;;;-8.34;76.07;101279.92;1780090;80;21191;-66
2020/12/08 02:00:14;;;;;;;6.03;2.97;;;;;;;-8.32;76.11;101283.84;1798416;79;21021;-66
2020/12/08 02:02:42;;;;;;;4.00;2.40;;;;;;;-8.28;76.14;101260.63;1783170;80;21559;-66
2020/12/08 02:05:12;;;;;;;0.90;0.90;;;;;;;-8.30;76.12;101266.35;1795687;79;21569;-66
2020/12/08 02:07:43;;;;;;;2.67;2.33;;;;;;;-8.32;76.05;101260.23;1783251;80;20914;-65
2020/12/08 02:10:13;;;;;;;7.33;1.75;;;;;;;-8.35;76.00;101270.80;1780564;79;21205;-65
2020/12/08 02:12:40;;;;;;;1.97;1.73;;;;;;;-8.36;76.00;101264.66;1798535;79;21532;-66
2020/12/08 02:15:09;;;;;;;4.43;3.00;;;;;;;-8.37;76.00;101276.48;1783154;80;21514;-66
2020/12/08 02:17:39;;;;;;;2.60;1.37;;;;;;;-8.38;75.98;101259.88;1798443;79;22055;-66
2020/12/08 02:20:07;;;;;;;6.03;2.80;;;;;;;-8.40;75.96;101262.52;1783225;80;20981;-66
2020/12/08 02:22:37;;;;;;;5.60;2.67;;;;;;;-8.40;75.96;101257.72;1798323;79;21208;-66
2020/12/08 02:25:05;;;;;;;3.43;2.80;;;;;;;-8.42;75.92;101245.11;1783625;80;20998;-65
2020/12/08 02:27:33;;;;;;;1.87;1.67;;;;;;;-8.45;75.94;101266.98;1789549;80;20995;-65
2020/12/08 02:30:04;;;;;;;6.60;3.07;;;;;;;-8.45;75.99;101263.05;1764056;81;21017;-66
2020/12/08 02:32:32;;;;;;;2.03;1.83;;;;;;;-8.45;76.04;101258.27;1791344;79;20980;-65
2020/12/08 02:35:01;;;;;;;3.60;1.63;;;;;;;-8.46;76.07;101256.09;1764375;81;21387;-64
2020/12/08 02:37:29;;;;;;;6.50;3.30;;;;;;;-8.43;76.13;101269.59;1789472;80;20969;-64
2020/12/08 02:39:58;;;;;;;2.00;1.83;;;;;;;-8.43;76.14;101269.17;1764323;81;21550;-66
2020/12/08 02:42:26;;;;;;;4.03;2.93;;;;;;;-8.41;76.18;101263.84;1789438;80;20929;-65
2020/12/08 02:44:54;;;;;;;2.87;2.10;;;;;;;-8.41;76.20;101280.48;1762431;81;21017;-65
2020/12/08 02:47:24;;;;;;;4.90;3.00;;;;;;;-8.41;76.14;101272.61;1734693;81;21217;-64
2020/12/08 02:49:54;;;;;;;4.97;2.53;;;;;;;-8.43;76.16;101277.05;1774666;79;21041;-65
2020/12/08 02:52:22;;;;;;;6.93;3.20;;;;;;;-8.40;76.15;101274.78;1762029;81;20961;-65
2020/12/08 02:54:50;;;;;;;4.07;2.57;;;;;;;-8.40;76.17;101268.22;1762031;81;20993;-66
2020/12/08 02:57:18;;;;;;;2.97;2.77;;;;;;;-8.40;76.20;101265.59;1762028;81;21032;-65
2020/12/08 02:59:46;;;;;;;3.83;2.93;;;;;;;-8.41;76.20;101269.09;1762083;81;21025;-65
2020/12/08 03:02:15;;;;;;;3.13;2.43;;;;;;;-8.38;76.27;101266.89;1761930;81;21032;-66
2020/12/08 03:04:45;;;;;;;15.07;2.93;;;;;;;-8.36;76.31;101280.40;1758173;81;21017;-65
2020/12/08 03:07:15;;;;;;;3.33;1.97;;;;;;;-8.35;76.40;101270.34;1762079;81;21044;-65
2020/12/08 03:09:43;;;;;;;3.87;1.73;;;;;;;-8.35;76.38;101279.52;1762045;81;20981;-65
2020/12/08 03:12:12;;;;;;;3.63;1.63;;;;;;;-8.33;76.43;101284.30;1762006;81;21386;-65
2020/12/08 03:14:40;;;;;;;1.87;1.77;;;;;;;-8.31;76.40;101286.45;1761997;81;20961;-64
2020/12/08 03:17:11;;;;;;;3.40;1.87;;;;;;;-8.30;76.41;101286.89;1762039;81;21064;-66
2020/12/08 03:19:40;;;;;;;4.03;2.53;;;;;;;-8.31;76.42;101291.70;1760221;81;21558;-65
2020/12/08 03:22:09;;;;;;;2.13;1.57;;;;;;;-8.31;76.41;101281.66;1756027;81;20950;-66
2020/12/08 03:24:44;;;;;;;0.90;0.90;;;;;;;-8.30;76.46;101280.33;1752257;81;21215;-65
2020/12/08 03:27:12;;;;;;;1.77;1.07;;;;;;;-8.27;76.51;101286.86;1735147;81;21011;-66
2020/12/08 03:29:41;;;;;;;4.50;2.77;;;;;;;-8.22;76.54;101285.46;1735201;82;20941;-66
2020/12/08 03:32:11;;;;;;;8.83;2.73;;;;;;;-8.21;76.50;101289.38;1735156;82;20903;-66
2020/12/08 03:34:39;;;;;;;2.67;2.03;;;;;;;-8.18;76.39;101289.77;1735118;82;20951;-66
2020/12/08 03:37:07;;;;;;;2.73;2.03;;;;;;;-8.20;76.23;101292.86;1735226;82;21569;-66
2020/12/08 03:39:36;;;;;;;0.90;0.90;;;;;;;-8.21;76.08;101294.63;1735100;82;21026;-65
2020/12/08 03:42:05;;;;;;;6.10;2.87;;;;;;;-8.23;75.93;101287.69;1735175;82;21010;-65
2020/12/08 03:44:35;;;;;;;2.67;2.47;;;;;;;-8.22;75.87;101285.46;1735347;82;21562;-65
2020/12/08 03:47:05;;;;;;;3.70;1.87;;;;;;;-8.25;75.70;101280.25;1733360;82;21049;-66
2020/12/08 03:49:34;;;;;;;5.00;2.43;;;;;;;-8.29;75.59;101283.81;1736478;82;21367;-65
2020/12/08 03:52:04;;;;;;;2.63;1.97;;;;;;;-8.33;75.52;101279.05;1741707;82;20971;-65
2020/12/08 03:54:32;;;;;;;4.70;3.20;;;;;;;-8.31;75.56;101279.03;1741770;82;20903;-65
2020/12/08 03:57:01;;;;;;;2.30;1.70;;;;;;;-8.32;75.54;101286.05;1741716;82;20935;-65
2020/12/08 03:59:30;;;;;;;4.20;2.17;;;;;;;-8.33;75.52;101286.92;1741743;82;21018;-66
2020/12/08 04:02:00;;;;;;;1.67;1.57;;;;;;;-8.31;75.55;101280.34;1738584;82;21508;-66
2020/12/08 04:04:27;;;;;;;2.63;1.73;;;;;;;-8.30;75.62;101268.98;1741783;82;21018;-67
2020/12/08 04:06:57;;;;;;;6.40;3.03;;;;;;;-8.29;75.61;101264.98;1741749;82;21603;-66
2020/12/08 04:09:25;;;;;;;3.13;1.83;;;;;;;-8.27;75.58;101281.61;1741692;82;21014;-65
2020/12/08 04:11:54;;;;;;;4.23;1.83;;;;;;;-8.26;75.49;101274.14;1741739;82;20912;-64
2020/12/08 04:14:22;;;;;;;5.27;3.17;;;;;;;-8.25;75.48;101273.27;1741712;82;21266;-66
2020/12/08 04:16:50;;;;;;;3.43;2.27;;;;;;;-8.23;75.44;101273.25;1741780;82;20979;-66
2020/12/08 04:19:18;;;;;;;1.93;1.47;;;;;;;-8.24;75.37;101267.11;1741961;82;21022;-64
2020/12/08 04:21:47;;;;;;;2.53;2.33;;;;;;;-8.24;75.34;101267.56;1741866;82;21010;-66
2020/12/08 04:24:16;;;;;;;3.00;2.40;;;;;;;-8.25;75.28;101246.13;1738741;82;20974;-66
2020/12/08 04:26:45;;;;;;;3.03;2.07;;;;;;;-8.27;75.27;101262.34;1741695;82;21394;-64
2020/12/08 04:29:15;;;;;;;1.00;1.00;;;;;;;-8.28;75.31;101262.80;1738714;82;21548;-66
2020/12/08 04:31:45;;;;;;;2.00;1.80;;;;;;;-8.28;75.30;101269.36;1741904;82;21570;-64
2020/12/08 04:34:13;;;;;;;2.77;2.17;;;;;;;-8.28;75.25;101259.32;1741857;82;21010;-64
2020/12/08 04:36:41;;;;;;;2.93;1.97;;;;;;;-8.30;75.18;101267.21;1741905;82;21030;-64
2020/12/08 04:39:09;;;;;;;2.27;1.77;;;;;;;-8.30;75.09;101271.60;1741776;82;21397;-66
2020/12/08 04:41:37;;;;;;;2.63;1.60;;;;;;;-8.31;75.05;101261.98;1741763;82;21006;-65
2020/12/08 04:44:05;;;;;;;3.07;2.47;;;;;;;-8.32;75.01;101268.99;1741866;82;21029;-66
2020/12/08 04:46:34;;;;;;;4.03;2.40;;;;;;;-8.32;74.94;101264.17;1706431;82;20934;-65
2020/12/08 04:49:02;;;;;;;2.00;1.37;;;;;;;-8.35;74.90;101266.41;1706023;84;21467;-65
2020/12/08 04:51:30;;;;;;;2.50;2.30;;;;;;;-8.35;74.92;101265.09;1736540;82;21370;-66
2020/12/08 04:54:00;;;;;;;5.03;3.10;;;;;;;-8.33;74.91;101276.88;1741783;82;21028;-67
2020/12/08 04:56:28;;;;;;;4.23;2.50;;;;;;;-8.32;74.85;101268.10;1735674;82;21083;-65
2020/12/08 04:58:55;;;;;;;2.17;1.93;;;;;;;-8.30;74.80;101276.84;1735275;82;21006;-66
2020/12/08 05:01:30;;;;;;;5.33;2.93;;;;;;;-8.29;74.79;101277.25;1735277;82;20970;-65
2020/12/08 05:04:01;;;;;;;2.87;2.23;;;;;;;-8.29;74.76;101270.23;1735343;82;21361;-65
2020/12/08 05:06:30;;;;;;;1.40;1.30;;;;;;;-8.27;74.70;101281.61;1735204;82;21046;-65
2020/12/08 05:09:08;;;;;;;2.60;2.03;;;;;;;-8.27;74.63;101285.97;1735251;82;20995;-66
2020/12/08 05:11:36;;;;;;;4.50;1.93;;;;;;;-8.27;74.59;101285.55;1735271;82;21587;-65
2020/12/08 05:14:05;;;;;;;8.77;2.47;;;;;;;-8.26;74.55;101287.72;1714522;82;21007;-65
2020/12/08 05:16:33;;;;;;;2.17;1.70;;;;;;;-8.25;74.50;101294.68;1735217;82;21190;-65
2020/12/08 05:19:08;;;;;;;3.53;2.33;;;;;;;-8.25;74.45;101296.88;1735152;82;21625;-66
2020/12/08 05:21:50;;;;;;;3.40;2.83;;;;;;;-8.26;74.46;101287.72;1735155;82;21157;-65
2020/12/08 05:24:29;;;;;;;8.73;3.27;;;;;;;-8.24;74.45;101295.12;1660282;85;21615;-66
2020/12/08 05:27:03;;;;;;;3.50;2.20;;;;;;;-8.26;74.40;101287.72;1669332;85;21519;-66
2020/12/08 05:29:38;;;;;;;3.07;2.63;;;;;;;-8.22;74.43;101282.38;1845540;76;22879;-65
2020/12/08 05:32:29;;;;;;;4.63;2.30;;;;;;;-8.25;74.45;101275.89;1815409;79;20905;-67
2020/12/08 05:34:56;;;;;;;5.60;2.17;;;;;;;-8.21;74.49;101285.90;1815381;79;21357;-66
2020/12/08 05:37:23;;;;;;;2.67;1.93;;;;;;;-8.18;74.50;101276.64;1815286;79;20972;-66
2020/12/08 05:39:52;;;;;;;4.53;2.43;;;;;;;-8.15;74.55;101281.00;1815383;79;20996;-65
2020/12/08 05:42:20;;;;;;;2.80;2.07;;;;;;;-8.14;74.59;101287.97;1815264;79;20991;-66
2020/12/08 05:44:51;;;;;;;4.77;2.30;;;;;;;-8.12;74.61;101289.70;1827306;77;20961;-65
2020/12/08 05:47:21;;;;;;;5.60;3.33;;;;;;;-8.11;74.62;101299.32;1861016;77;21170;-67
2020/12/08 05:50:00;;;;;;;2.70;2.17;;;;;;;-8.11;74.62;101291.45;1853598;76;21350;-66
2020/12/08 05:52:21;;;;;;;2.67;2.40;;;;;;;-8.12;74.65;101293.63;1811227;79;21056;-66
2020/12/08 05:54:48;;;;;;;1.60;1.50;;;;;;;-8.13;74.74;101298.45;1815279;79;20905;-65
2020/12/08 05:57:16;;;;;;;2.07;1.90;;;;;;;-8.13;74.73;101292.34;1815470;78;21083;-66
2020/12/08 05:59:55;;;;;;;5.23;2.77;;;;;;;-8.06;74.96;101297.47;1814907;79;21510;-65
2020/12/08 06:02:30;;;;;;;5.50;3.33;;;;;;;-7.97;75.10;101296.92;1793298;79;20976;-65
2020/12/08 06:04:58;;;;;;;1.80;1.57;;;;;;;-7.92;75.06;101313.48;1767588;81;20941;-65
2020/12/08 06:07:29;;;;;;;1.47;1.30;;;;;;;-7.87;75.10;101309.89;1732912;81;20970;-66
2020/12/08 06:10:06;;;;;;;2.67;2.47;;;;;;;-7.87;75.07;101311.20;1704260;84;20953;-65
2020/12/08 06:12:36;;;;;;;1.93;1.80;;;;;;;-7.81;75.12;101322.05;1698409;84;21394;-65
2020/12/08 06:17:55;;;;;;;5.90;3.27;;;;;;;-7.70;75.15;101315.32;1845360;75;22669;-67
2020/12/08 06:20:23;;;;;;;1.90;1.63;;;;;;;-7.71;75.16;101318.86;1815448;79;20916;-65
2020/12/08 06:22:56;;;;;;;1.13;1.13;;;;;;;-7.70;75.15;101299.56;1815251;79;21144;-66
2020/12/08 06:25:27;;;;;;;6.67;2.90;;;;;;;-7.67;75.19;101304.78;1728078;81;21052;-65
2020/12/08 06:28:03;;;;;;;5.13;3.23;;;;;;;-7.64;75.28;101302.97;1727959;83;21040;-66
2020/12/08 06:30:31;;;;;;;6.30;2.87;;;;;;;-7.58;75.33;101290.63;1728190;83;21004;-64
2020/12/08 06:33:01;;;;;;;2.20;2.00;;;;;;;-7.56;75.29;101290.15;1727988;83;21012;-66
2020/12/08 06:35:33;;;;;;;2.60;1.80;;;;;;;-7.55;75.27;101291.45;1728289;83;21367;-67
2020/12/08 06:38:02;;;;;;;13.00;2.33;;;;;;;-7.52;75.23;101287.46;1724165;83;21095;-67
2020/12/08 06:40:30;;;;;;;2.23;2.07;;;;;;;-7.50;75.26;101292.23;1728151;83;20988;-65
2020/12/08 06:42:58;;;;;;;2.20;1.77;;;;;;;-7.45;75.30;101293.48;1728053;81;21095;-65
2020/12/08 06:45:26;;;;;;;2.30;2.17;;;;;;;-7.38;75.32;101290.28;1712411;83;21013;-66
2020/12/08 06:47:54;;;;;;;5.87;2.97;;;;;;;-7.30;75.28;101277.89;1698221;84;21214;-67
2020/12/08 06:50:27;;;;;;;3.47;2.80;;;;;;;-7.24;75.12;101283.05;1698119;82;21028;-66
2020/12/08 06:53:00;;;;;;;2.52;2.08;;;;;;;-7.22;74.96;101269.43;1698128;83;26952;-68
2020/12/08 06:55:28;;;;;;;3.80;2.92;;;;;;;-7.20;74.74;101267.63;1707411;83;21003;-64
2020/12/08 06:58:04;;;;;;;3.47;2.13;;;;;;;-7.18;74.61;101275.50;1698727;84;21104;-67
2020/12/08 07:00:32;;;;;;;2.47;2.23;;;;;;;-7.18;74.49;101275.04;1699305;84;21237;-66
2020/12/08 07:03:02;;;;;;;8.10;3.67;;;;;;;-7.18;74.40;101261.04;1698608;83;21072;-67
2020/12/08 07:05:32;;;;;;;4.23;2.70;;;;;;;-7.13;74.38;101271.02;1699519;83;21569;-69
2020/12/08 07:08:05;;;;;;;4.20;2.93;;;;;;;-7.08;74.43;101271.35;1698583;82;21099;-68
2020/12/08 07:10:38;;;;;;;;;;;;;;;-7.03;74.37;101271.70;1700323;84;21638;-69
2020/12/08 07:13:15;;;;;;;2.27;2.03;;;;;;;-6.92;74.32;101277.19;1816812;76;22707;-68
2020/12/08 07:15:44;;;;;;;2.67;2.23;;;;;;;-6.92;74.21;101278.50;1814745;79;21019;-68
2020/12/08 07:18:13;;;;;;;3.00;2.70;;;;;;;-6.88;74.22;101270.95;1815786;79;22355;-68
2020/12/08 07:20:42;;;;;;;4.67;2.27;;;;;;;-6.80;74.15;101272.57;1815708;79;21020;-69
2020/12/08 07:23:11;;;;;;;7.23;3.33;;;;;;;-6.71;74.10;101263.17;1814934;79;21560;-66
2020/12/08 07:25:39;;;;;;;6.23;3.00;;;;;;;-6.63;74.04;101257.77;1815222;79;21114;-67
2020/12/08 07:28:10;;;;;;;5.40;2.53;;;;;;;-6.55;73.98;101261.09;1813512;78;21069;-68
2020/12/08 07:30:38;;;;;;;2.70;2.50;;;;;;;-6.43;73.91;101262.60;1805327;78;21133;-67
2020/12/08 07:33:12;;;;;;;6.43;3.20;;;;;;;-6.34;73.72;101275.13;1813766;78;21015;-68
2020/12/08 07:35:47;;;;;;;2.87;2.00;;;;;;;-6.22;73.35;101260.81;1875292;75;22692;-72
2020/12/08 07:38:15;;;;;;;8.03;2.73;;;;;;;-6.20;73.24;101272.17;1847813;77;20927;-68
2020/12/08 07:40:43;;;;;;;3.07;2.47;;;;;;;-6.08;73.21;101271.03;1849210;77;21055;-68
2020/12/08 07:43:11;;;;;;;1.90;1.77;;;;;;;-6.01;72.90;101272.62;1866985;76;21737;-67
2020/12/08 07:45:44;;;;;;;6.63;2.50;;;;;;;-5.98;72.76;101271.70;1869297;76;20981;-68
2020/12/08 07:48:18;;;;;;;2.87;2.47;;;;;;;-5.95;72.65;101261.05;1861802;76;21014;-67
2020/12/08 07:50:46;;;;;;;2.40;2.20;;;;;;;-5.87;72.67;101264.37;1797025;79;20947;-67
2020/12/08 07:53:15;;;;;;;7.63;3.30;;;;;;;-5.72;72.75;101260.06;1775744;78;21365;-67
2020/12/08 07:55:45;;;;;;;2.10;2.00;;;;;;;-5.50;72.83;101257.34;1786221;78;21068;-66
2020/12/08 07:58:13;;;;;;;3.63;2.33;;;;;;;-5.26;72.76;101263.31;1796754;78;21075;-67
2020/12/08 08:00:41;;;;;;;2.83;2.20;;;;;;;-5.05;72.22;101263.16;1803676;79;21763;-66
2020/12/08 08:03:09;;;;;;;2.67;1.93;;;;;;;-5.00;71.46;101259.09;1799523;78;21583;-69
2020/12/08 08:05:38;;;;;;;2.00;1.77;;;;;;;-4.98;71.24;101249.36;1802418;78;21283;-66
2020/12/08 08:08:06;;;;;;;4.23;2.43;;;;;;;-4.96;71.04;101247.11;1801817;79;21164;-64
2020/12/08 08:10:34;;;;;;;3.53;2.30;;;;;;;-4.92;70.88;101242.61;1801756;79;21477;-66
2020/12/08 08:13:02;;;;;;;3.20;2.40;;;;;;;-4.86;70.94;101244.20;1801730;79;21440;-71
2020/12/08 08:15:33;;;;;;;1.60;1.50;;;;;;;-4.77;70.77;101251.85;1802188;78;21641;-73
2020/12/08 08:18:01;;;;;;;3.67;2.70;;;;;;;-4.66;70.70;101248.90;1805183;78;21259;-73
2020/12/08 08:20:31;;;;;;;2.30;2.13;;;;;;;-4.50;70.72;101246.22;1770872;80;21049;-75
2020/12/08 08:23:00;;;;;;;2.67;2.40;;;;;;;-4.33;70.34;101246.19;1823094;78;21017;-75
2020/12/08 08:25:28;;;;;;;2.73;2.50;;;;;;;-4.27;69.96;101241.56;1812295;77;21027;-78
2020/12/08 08:27:56;;;;;;;2.90;2.63;;;;;;;-4.28;69.00;101237.20;1795738;78;20997;-79
2020/12/08 08:30:24;;;;;;;2.23;2.03;;;;;;;-4.29;68.83;101238.57;1816630;78;21392;-76
2020/12/08 08:32:52;;;;;;;4.80;2.70;;;;;;;-4.29;68.71;101230.18;1823393;78;20985;-79
2020/12/08 08:35:21;;;;;;;2.43;1.63;;;;;;;-4.28;68.53;101223.14;1827103;78;20961;-77
2020/12/08 08:37:49;;;;;;;1.97;1.77;;;;;;;-4.28;68.03;101221.83;1828701;78;20938;-76
2020/12/08 08:40:17;;;;;;;4.67;2.20;;;;;;;-4.22;68.16;101223.80;1787104;78;21044;-76
2020/12/08 08:42:47;;;;;;;2.27;2.07;;;;;;;-4.02;68.03;101218.34;1790024;79;21185;-76
2020/12/08 08:45:16;;;;;;;5.57;2.67;;;;;;;-3.85;67.39;101214.70;1799352;77;21637;-76
2020/12/08 08:47:44;;;;;;;1.90;1.67;;;;;;;-3.78;66.54;101202.16;1793449;79;21578;-78
2020/12/08 08:50:12;;;;;;;4.43;2.40;;;;;;;-3.72;66.41;101209.01;1776168;79;21133;-75
2020/12/08 08:52:40;;;;;;;2.20;1.73;;;;;;;-3.59;65.83;101205.05;1753152;79;21040;-68
2020/12/08 08:55:09;;;;;;;10.60;3.27;;;;;;;-3.51;65.46;101203.45;1796338;78;21370;-67
2020/12/08 08:57:39;;;;;;;7.27;3.00;;;;;;;-3.39;65.30;101203.50;1795863;79;20941;-67
2020/12/08 09:00:09;;;;;;;3.43;2.90;;;;;;;-3.19;65.32;101201.47;1805240;78;22269;-66
2020/12/08 09:02:38;;;;;;;4.57;2.67;;;;;;;-3.02;64.71;101204.84;1794218;78;20952;-73
2020/12/08 09:05:07;;;;;;;3.77;2.63;;;;;;;-2.94;63.99;101197.03;1802226;78;20993;-74
2020/12/08 09:07:36;;;;;;;6.97;2.63;;;;;;;-2.87;63.26;101194.99;1805326;78;21664;-75
2020/12/08 09:10:04;;;;;;;2.87;2.17;;;;;;;-2.86;62.78;101184.35;1807596;78;20969;-74
2020/12/08 09:12:33;;;;;;;3.80;2.77;;;;;;;-2.76;62.83;101182.23;1808087;78;21009;-73
2020/12/08 09:15:04;;;;;;;3.67;1.80;;;;;;;-2.64;62.47;101195.92;1815061;78;21102;-77
2020/12/08 09:17:31;;;;;;;3.53;2.77;;;;;;;-2.51;62.26;101183.48;1793891;78;21088;-71
2020/12/08 09:20:00;;;;;;;3.17;2.23;;;;;;;-2.39;61.57;101184.80;1805213;78;21349;-71
2020/12/08 09:22:29;;;;;;;6.40;2.93;;;;;;;-2.41;60.44;101183.12;1829646;78;21020;-72
2020/12/08 09:24:58;;;;;;;4.43;2.80;;;;;;;-2.45;60.02;101189.47;1797459;79;20938;-73
2020/12/08 09:27:26;;;;;;;4.03;2.10;;;;;;;-2.46;60.11;101187.29;1820253;78;21590;-73
2020/12/08 09:29:54;;;;;;;3.67;2.47;;;;;;;-2.34;60.24;101185.48;1796392;80;21491;-75
2020/12/08 09:32:24;;;;;;;3.70;2.30;;;;;;;-2.13;60.18;101192.16;1820503;78;21872;-75
2020/12/08 09:34:52;;;;;;;5.87;3.10;;;;;;;-1.99;59.56;101178.36;1777444;79;21017;-71
2020/12/08 09:37:23;;;;;;;8.97;4.10;;;;;;;-1.97;58.58;101179.15;1806578;79;21032;-73
2020/12/08 09:39:52;;;;;;;4.13;3.20;;;;;;;-2.01;58.25;101169.61;1775036;80;20985;-71
2020/12/08 09:42:21;;;;;;;4.80;2.87;;;;;;;-1.98;58.09;101177.44;1790862;80;21582;-73
2020/12/08 09:44:49;;;;;;;3.93;2.90;;;;;;;-1.93;57.74;101173.67;1801993;79;21382;-72
2020/12/08 09:47:18;;;;;;;3.27;2.57;;;;;;;-1.89;57.59;101173.52;1790951;80;20985;-72
2020/12/08 09:49:48;;;;;;;5.20;2.07;;;;;;;-1.77;57.55;101187.16;1798370;79;21037;-72
2020/12/08 09:52:16;;;;;;;3.57;2.83;;;;;;;-1.65;57.10;101179.59;1805340;79;20977;-72
2020/12/08 09:54:44;;;;;;;4.87;3.13;;;;;;;-1.59;56.88;101177.55;1805442;79;21466;-72
2020/12/08 09:57:14;;;;;;;4.57;3.57;;;;;;;-1.47;56.87;101176.62;1805557;79;21206;-76
2020/12/08 09:59:43;;;;;;;5.97;3.70;;;;;;;-1.30;56.68;101190.02;1804203;79;20997;-72
2020/12/08 10:02:11;;;;;;;6.00;2.57;;;;;;;-1.25;55.70;101171.26;1804374;78;21072;-68
2020/12/08 10:04:39;;;;;;;5.53;3.43;;;;;;;-1.27;55.55;101154.07;1805554;79;21069;-69
2020/12/08 10:07:09;;;;;;;6.17;3.17;;;;;;;-1.25;55.37;101160.16;1806225;79;21046;-71
2020/12/08 10:09:37;;;;;;;10.43;3.27;;;;;;;-1.31;54.78;101160.45;1805938;79;22865;-67
2020/12/08 10:12:05;;;;;;;2.70;1.87;;;;;;;-1.37;54.89;101168.19;1814525;78;21099;-68
2020/12/08 10:14:40;;;;;;;5.90;3.30;;;;;;;-1.37;54.64;101160.23;1795980;79;21060;-68
2020/12/08 10:17:09;;;;;;;4.80;2.53;;;;;;;-1.41;54.73;101149.84;1801482;79;21016;-66
2020/12/08 10:19:38;;;;;;;7.67;3.10;;;;;;;-1.47;54.41;101157.61;1780104;79;21235;-65
2020/12/08 10:22:07;;;;;;;7.40;2.60;;;;;;;-1.46;54.45;101161.11;1780633;80;21284;-69
2020/12/08 10:24:35;;;;;;;6.73;3.23;;;;;;;-1.46;54.38;101143.87;1803801;78;20886;-70
2020/12/08 10:27:03;;;;;;;6.83;3.27;;;;;;;-1.43;54.46;101139.29;1792246;80;21020;-70
2020/12/08 10:29:32;;;;;;;7.67;2.93;;;;;;;-1.36;54.31;101143.39;1773473;79;21017;-68
2020/12/08 10:32:00;;;;;;;3.53;2.43;;;;;;;-1.34;53.92;101145.52;1775533;79;20991;-70
2020/12/08 10:34:28;;;;;;;7.20;3.13;;;;;;;-1.32;53.69;101141.47;1794877;79;21197;-69
2020/12/08 10:36:58;;;;;;;4.47;2.47;;;;;;;-1.31;53.12;101154.26;1802659;78;21573;-70
2020/12/08 10:39:26;;;;;;;8.60;3.73;;;;;;;-1.36;53.11;101146.05;1795705;78;21036;-66
2020/12/08 10:41:56;;;;;;;7.87;2.90;;;;;;;-1.30;52.56;101141.41;1816001;77;21049;-66
2020/12/08 10:44:24;;;;;;;8.10;2.80;;;;;;;-1.29;52.36;101143.11;1817534;77;21140;-68
2020/12/08 10:46:52;;;;;;;9.00;3.00;;;;;;;-1.26;52.12;101141.17;1826694;77;21194;-71
2020/12/08 10:49:21;;;;;;;4.10;2.50;;;;;;;-1.20;51.73;101147.55;1782287;80;21151;-72
2020/12/08 10:51:52;;;;;;;4.80;2.33;;;;;;;-1.22;51.25;101144.11;1811501;78;21025;-72
2020/12/08 10:54:20;;;;;;;5.87;2.70;;;;;;;-1.24;50.67;101134.04;1812454;78;21054;-72
2020/12/08 10:56:52;;;;;;;6.23;3.13;;;;;;;-1.22;50.35;101139.25;1814909;78;21049;-74
2020/12/08 10:59:20;;;;;;;4.97;2.93;;;;;;;-1.15;50.70;101134.09;1815052;78;21311;-73
2020/12/08 11:01:50;;;;;;;6.20;2.70;;;;;;;-0.97;50.51;101136.38;1823212;77;21006;-71
2020/12/08 11:04:20;;;;;;;3.60;2.57;;;;;;;-0.92;49.59;101133.48;1823486;78;21018;-72
2020/12/08 11:06:49;;;;;;;5.03;2.40;;;;;;;-0.98;49.25;101124.87;1812282;78;20923;-72
2020/12/08 11:09:17;;;;;;;4.00;2.57;;;;;;;-0.97;48.91;101132.39;1813795;78;21420;-71
2020/12/08 11:11:45;;;;;;;3.30;2.17;;;;;;;-1.02;48.24;101121.11;1816243;78;21383;-72
2020/12/08 11:14:16;;;;;;;3.37;2.43;;;;;;;-1.07;47.99;101123.11;1805628;78;20972;-70
2020/12/08 11:16:43;;;;;;;5.70;2.70;;;;;;;-1.09;47.59;101131.62;1809629;78;21162;-71
2020/12/08 11:19:12;;;;;;;4.00;2.83;;;;;;;-1.05;47.71;101129.21;1797149;78;21558;-69
2020/12/08 11:21:41;;;;;;;8.07;3.60;;;;;;;-1.00;46.83;101132.52;1794236;79;21029;-70
2020/12/08 11:24:11;;;;;;;7.53;3.20;;;;;;;-0.97;46.56;101128.41;1811333;78;21222;-71
2020/12/08 11:26:39;;;;;;;3.40;2.30;;;;;;;-0.92;46.55;101130.39;1783658;79;21331;-71
2020/12/08 11:29:07;;;;;;;4.20;2.73;;;;;;;-0.92;46.00;101113.57;1789732;79;20963;-70
2020/12/08 11:31:35;;;;;;;8.17;3.83;;;;;;;-0.92;45.62;101112.24;1788758;78;21598;-70
2020/12/08 11:34:03;;;;;;;6.10;2.43;;;;;;;-0.91;45.20;101114.83;1793569;79;21019;-70
2020/12/08 11:36:37;;;;;;;7.00;3.20;;;;;;;-0.90;45.03;101109.93;1784467;79;22619;-69